Time;durP1;ratioP1;P1;durP2;ratioP2;P2;SDS_P1;SDS_P2;PMS_P1;PMS_P2;Temp;Humidity;BMP_temperature;BMP_pressure;BME280_temperature;BME280_humidity;BME280_pressure;Samples;Min_cycle;Max_cycle;Signal;HPM_P1;HPM_P2
2022/11/16 00:01:12;;;;;;;19.85;15.25;;;;;;;8.71;64.02;99929.14;1771357;79;21100;-60
2022/11/16 00:03:39;;;;;;;20.15;15.32;;;;;;;8.74;64.01;99930.21;1767974;80;21939;-61
2022/11/16 00:06:06;;;;;;;20.92;15.78;;;;;;;8.79;64.07;99926.38;1761150;80;21653;-60
2022/11/16 00:08:37;;;;;;;23.52;17.60;;;;;;;8.81;64.05;99922.69;1761019;80;21006;-62
2022/11/16 00:11:07;;;;;;;21.60;14.87;;;;;;;8.80;64.04;99922.81;1751612;80;21620;-61
2022/11/16 00:13:34;;;;;;;20.45;15.53;;;;;;;8.83;64.02;99910.77;1750970;80;21104;-62
2022/11/16 00:16:01;;;;;;;22.82;16.20;;;;;;;8.80;63.86;99905.27;1740106;80;21209;-62
2022/11/16 00:18:28;;;;;;;20.90;16.25;;;;;;;8.75;64.00;99904.80;1753311;80;21091;-63
2022/11/16 00:20:55;;;;;;;22.32;16.02;;;;;;;8.82;63.93;99907.28;1768012;80;21489;-63
2022/11/16 00:23:22;;;;;;;21.57;17.82;;;;;;;8.82;63.86;99903.84;1739503;80;21567;-62
2022/11/16 00:25:49;;;;;;;21.07;16.23;;;;;;;8.83;63.82;99896.33;1758066;80;21077;-62
2022/11/16 00:28:16;;;;;;;20.27;15.95;;;;;;;8.84;63.72;99899.29;1766876;80;21255;-62
2022/11/16 00:30:44;;;;;;;20.57;15.60;;;;;;;8.89;63.56;99889.26;1755496;80;21137;-63
2022/11/16 00:33:14;;;;;;;23.80;16.60;;;;;;;8.94;63.54;99888.41;1755060;80;21636;-63
2022/11/16 00:35:40;;;;;;;22.58;16.77;;;;;;;8.87;63.88;99888.06;1765768;80;21563;-62
2022/11/16 00:38:07;;;;;;;24.52;18.05;;;;;;;8.94;63.71;99888.41;1742925;80;21494;-62
2022/11/16 00:40:37;;;;;;;18.85;16.23;;;;;;;8.93;63.69;99891.52;1749466;80;21566;-62
2022/11/16 00:43:05;;;;;;;24.23;17.15;;;;;;;8.83;63.82;99889.77;1743502;80;21061;-62
2022/11/16 00:45:32;;;;;;;22.93;16.52;;;;;;;8.78;63.92;99886.69;1709779;83;21058;-63
2022/11/16 00:47:58;;;;;;;23.02;17.05;;;;;;;8.74;64.11;99879.52;1733106;81;21097;-63
2022/11/16 00:50:25;;;;;;;23.83;17.45;;;;;;;8.71;64.06;99879.30;1732199;81;21045;-62
2022/11/16 00:52:53;;;;;;;21.80;16.75;;;;;;;8.68;64.19;99878.23;1726120;81;21227;-63
2022/11/16 00:55:19;;;;;;;24.15;16.50;;;;;;;8.65;64.28;99877.16;1731761;81;21116;-63
2022/11/16 00:57:46;;;;;;;26.40;16.75;;;;;;;8.69;64.09;99872.04;1698915;82;21101;-63
2022/11/16 01:00:14;;;;;;;19.65;14.65;;;;;;;8.78;64.03;99868.33;1693795;82;21533;-63
2022/11/16 01:02:42;;;;;;;23.85;16.62;;;;;;;8.78;64.12;99866.52;1693584;83;21057;-63
2022/11/16 01:05:09;;;;;;;21.73;16.95;;;;;;;8.80;64.10;99864.60;1693239;82;21180;-63
2022/11/16 01:07:36;;;;;;;25.27;18.98;;;;;;;8.82;64.16;99857.44;1696327;83;21071;-62
2022/11/16 01:10:05;;;;;;;26.27;19.17;;;;;;;8.82;64.21;99856.61;1688995;83;21584;-63
2022/11/16 01:12:32;;;;;;;23.80;19.62;;;;;;;8.83;64.08;99854.36;1731495;81;21026;-63
2022/11/16 01:15:00;;;;;;;25.10;19.35;;;;;;;8.83;64.09;99853.87;1712419;81;21074;-64
2022/11/16 01:17:28;;;;;;;25.62;18.00;;;;;;;8.79;64.10;99846.36;1728965;82;21326;-62
2022/11/16 01:19:54;;;;;;;23.60;17.77;;;;;;;8.76;64.09;99848.77;1727145;82;21162;-63
2022/11/16 01:22:21;;;;;;;20.92;15.75;;;;;;;8.72;64.26;99842.95;1730679;82;21118;-62
2022/11/16 01:24:48;;;;;;;21.17;16.20;;;;;;;8.72;64.26;99835.08;1706838;82;21066;-63
2022/11/16 01:27:14;;;;;;;23.02;15.63;;;;;;;8.78;64.13;99839.47;1709030;82;21508;-62
2022/11/16 01:29:44;;;;;;;18.95;15.45;;;;;;;8.84;64.09;99833.24;1709229;82;21135;-63
2022/11/16 01:32:10;;;;;;;23.38;16.82;;;;;;;8.89;64.00;99832.39;1718401;82;21621;-63
2022/11/16 01:34:38;;;;;;;21.73;16.07;;;;;;;8.88;64.04;99829.89;1709532;82;21459;-63
2022/11/16 01:37:06;;;;;;;19.10;15.78;;;;;;;8.87;64.00;99828.20;1706394;82;21086;-63
2022/11/16 01:39:35;;;;;;;21.97;16.45;;;;;;;8.85;64.03;99827.02;1702284;82;21046;-63
2022/11/16 01:42:03;;;;;;;23.67;16.40;;;;;;;8.81;63.99;99825.62;1696643;83;21208;-62
2022/11/16 01:44:36;;;;;;;19.92;15.70;;;;;;;8.77;64.09;99820.25;1703757;82;21593;-63
2022/11/16 01:47:15;;;;;;;22.27;16.37;;;;;;;8.72;64.17;99828.52;1730064;81;21815;-62
2022/11/16 01:49:48;;;;;;;24.45;17.45;;;;;;;8.68;64.34;99827.57;1718810;81;21148;-63
2022/11/16 01:52:20;;;;;;;23.65;16.73;;;;;;;8.71;64.29;99824.22;1729387;81;21009;-61
2022/11/16 01:54:48;;;;;;;21.52;15.48;;;;;;;8.82;64.19;99831.69;1712265;83;21284;-61
2022/11/16 01:57:19;;;;;;;20.20;15.45;;;;;;;8.90;64.16;99825.34;1712176;83;21067;-61
2022/11/16 01:59:50;;;;;;;23.38;16.05;;;;;;;8.95;64.13;99828.91;1683584;82;21097;-61
2022/11/16 02:02:19;;;;;;;20.45;15.78;;;;;;;8.96;64.14;99827.93;1724715;81;21050;-62
2022/11/16 02:04:46;;;;;;;22.30;16.70;;;;;;;8.95;64.00;99822.34;1737840;81;21046;-62
2022/11/16 02:07:29;;;;;;;24.72;16.73;;;;;;;8.85;64.14;99828.82;1710520;83;21261;-61
2022/11/16 02:10:16;;;;;;;26.15;17.98;;;;;;;8.85;64.13;99824.88;1697566;83;21030;-61
2022/11/16 02:13:02;;;;;;;25.02;18.80;;;;;;;8.78;64.14;99821.11;1691927;83;21054;-61
2022/11/16 02:15:40;;;;;;;;;;;;;;;8.76;64.18;99822.54;1701800;82;21495;-62
2022/11/16 02:18:32;;;;;;;24.60;19.25;;;;;;;8.73;64.29;99822.78;1707154;83;20165;-62
2022/11/16 02:21:40;;;;;;;22.90;17.00;;;;;;;8.66;64.45;99820.31;1706381;82;21168;-61
2022/11/16 02:24:18;;;;;;;21.77;16.25;;;;;;;8.64;64.52;99815.64;1679137;84;21086;-61
2022/11/16 02:27:17;;;;;;;22.60;16.62;;;;;;;8.68;64.42;99817.08;1694868;82;21097;-63
2022/11/16 02:29:52;;;;;;;23.60;17.85;;;;;;;8.76;64.48;99817.30;1702992;82;21083;-62
2022/11/16 02:32:33;;;;;;;25.57;19.12;;;;;;;8.81;64.50;99815.12;1679015;84;21050;-62
2022/11/16 02:35:20;;;;;;;27.80;21.55;;;;;;;8.84;64.44;99814.88;1687860;82;21173;-62
2022/11/16 02:37:56;;;;;;;29.98;23.65;;;;;;;8.83;64.38;99800.58;1702770;83;21575;-61
2022/11/16 02:40:23;;;;;;;26.95;21.62;;;;;;;8.74;64.52;99809.55;1702518;82;21066;-62
2022/11/16 02:42:55;;;;;;;24.63;17.77;;;;;;;8.76;64.44;99808.57;1740421;81;21146;-62
2022/11/16 02:45:24;;;;;;;22.42;16.15;;;;;;;8.71;64.53;99802.41;1720730;81;21037;-61
2022/11/16 02:47:53;;;;;;;22.93;17.25;;;;;;;8.70;64.66;99796.31;1736491;81;21206;-61
2022/11/16 02:50:22;;;;;;;23.12;16.15;;;;;;;8.69;64.66;99791.19;1736970;81;21050;-61
2022/11/16 02:52:49;;;;;;;20.90;15.38;;;;;;;8.66;64.64;99783.11;1725506;81;21019;-61
2022/11/16 02:55:16;;;;;;;21.50;14.98;;;;;;;8.72;64.62;99787.86;1721905;81;21540;-61
2022/11/16 02:57:51;;;;;;;19.65;15.83;;;;;;;8.78;64.64;99785.69;1721462;81;21681;-61
2022/11/16 03:00:25;;;;;;;22.32;16.93;;;;;;;8.84;64.62;99788.64;1726258;81;21405;-62
2022/11/16 03:03:12;;;;;;;21.62;16.40;;;;;;;8.79;64.70;99786.02;1713684;81;21117;-61
2022/11/16 03:06:01;;;;;;;24.10;17.35;;;;;;;8.74;64.81;99782.46;1723174;81;21015;-61
2022/11/16 03:08:41;;;;;;;24.45;18.17;;;;;;;8.70;64.94;99777.95;1725499;81;21578;-61
2022/11/16 03:14:04;;;;;;;23.07;17.42;;;;;;;8.64;65.05;99782.41;1706267;82;21092;-61
2022/11/16 03:16:45;;;;;;;16.30;8.98;;;;;;;8.60;65.16;99776.22;1695579;83;21112;-61
2022/11/16 03:19:14;;;;;;;21.68;16.27;;;;;;;8.57;65.23;99779.91;1701708;82;21066;-62
2022/11/16 03:21:50;;;;;;;22.98;16.77;;;;;;;8.59;65.22;99782.41;1705439;83;21058;-61
2022/11/16 03:24:18;;;;;;;22.15;16.73;;;;;;;8.62;65.22;99779.05;1703640;82;21055;-62
2022/11/16 03:27:17;;;;;;;23.25;17.00;;;;;;;8.59;65.36;99779.78;1703028;82;21831;-62
2022/11/16 03:30:07;;;;;;;26.75;18.37;;;;;;;8.54;65.48;99779.69;1696115;83;21130;-61
2022/11/16 03:33:04;;;;;;;26.62;18.02;;;;;;;8.47;65.69;99771.98;1695390;83;21036;-62
2022/11/16 03:35:43;;;;;;;26.02;17.55;;;;;;;8.43;65.91;99777.09;1685084;83;21142;-62
2022/11/16 03:38:09;;;;;;;27.73;19.57;;;;;;;8.35;66.05;99771.61;1697118;82;21027;-63
2022/11/16 03:40:38;;;;;;;23.42;17.35;;;;;;;8.28;66.33;99767.33;1725496;82;21974;-61
2022/11/16 03:43:06;;;;;;;26.45;17.67;;;;;;;8.26;66.51;99762.70;1716257;81;21004;-62
2022/11/16 03:45:32;;;;;;;25.77;19.67;;;;;;;8.32;66.50;99756.97;1707735;83;21265;-61
2022/11/16 03:47:59;;;;;;;27.48;18.75;;;;;;;8.31;66.59;99757.92;1700110;82;21093;-60
2022/11/16 03:50:26;;;;;;;26.40;19.80;;;;;;;8.26;66.85;99760.56;1722900;81;21062;-61
2022/11/16 03:52:53;;;;;;;28.42;19.45;;;;;;;8.23;67.02;99764.25;1684567;83;21835;-61
2022/11/16 03:55:20;;;;;;;29.92;20.02;;;;;;;8.19;67.24;99759.73;1709013;82;21147;-61
2022/11/16 03:57:46;;;;;;;30.88;19.85;;;;;;;8.17;67.38;99760.34;1698537;82;21054;-61
2022/11/16 04:00:15;;;;;;;27.73;19.07;;;;;;;8.17;67.45;99756.90;1692057;82;21141;-61
2022/11/16 04:02:42;;;;;;;28.15;19.73;;;;;;;8.19;67.46;99758.42;1724173;81;21105;-61
2022/11/16 04:24:39;;;;;;;31.68;20.05;;;;;;;8.13;68.83;99756.28;1739448;81;21065;-63
2022/11/16 04:29:55;;;;;;;33.85;23.10;;;;;;;8.17;68.99;99755.10;1687920;82;21069;-63
2022/11/16 04:37:57;;;;;;;28.47;21.23;;;;;;;8.06;69.71;99745.12;1658963;85;21139;-62
2022/11/16 04:40:30;;;;;;;33.20;20.17;;;;;;;7.99;69.94;99739.05;1704012;82;21126;-62
2022/11/16 04:42:58;;;;;;;27.95;19.75;;;;;;;8.00;69.98;99742.50;1728538;80;21007;-62
2022/11/16 04:48:12;;;;;;;28.80;20.90;;;;;;;8.08;69.88;99737.97;1725111;81;21030;-62
2022/11/16 04:50:39;;;;;;;27.95;20.27;;;;;;;8.10;70.01;99732.12;1701990;83;21100;-62
2022/11/16 04:53:07;;;;;;;32.28;20.72;;;;;;;8.11;70.33;99727.24;1707175;82;21634;-61
2022/11/16 04:55:36;;;;;;;34.60;22.42;;;;;;;8.11;70.39;99725.94;1701835;82;21559;-62
2022/11/16 04:58:03;;;;;;;28.67;20.15;;;;;;;8.11;70.35;99725.94;1719520;81;21248;-62
2022/11/16 05:00:29;;;;;;;27.02;19.80;;;;;;;8.05;70.29;99723.80;1726141;81;21520;-62
2022/11/16 05:02:57;;;;;;;31.02;19.65;;;;;;;7.98;70.27;99726.07;1711497;82;21530;-63
2022/11/16 05:05:23;;;;;;;26.80;19.60;;;;;;;7.99;70.26;99727.27;1704116;82;21080;-62
2022/11/16 05:07:53;;;;;;;28.17;20.95;;;;;;;8.04;70.45;99720.35;1712474;82;21568;-62
2022/11/16 05:10:21;;;;;;;28.75;20.37;;;;;;;8.08;70.49;99715.70;1707849;82;21352;-62
2022/11/16 05:12:48;;;;;;;27.13;18.70;;;;;;;8.05;70.63;99719.37;1711947;82;21002;-62
2022/11/16 05:15:18;;;;;;;27.00;19.82;;;;;;;8.04;70.70;99720.35;1696474;82;21826;-62
2022/11/16 05:17:45;;;;;;;30.02;20.08;;;;;;;8.00;70.77;99725.47;1707325;82;21071;-62
2022/11/16 05:23:02;;;;;;;25.43;18.20;;;;;;;7.94;70.94;99722.87;1703696;82;21190;-63
2022/11/16 05:25:30;;;;;;;25.77;20.02;;;;;;;8.00;70.77;99720.23;1700949;82;21140;-63
2022/11/16 05:27:57;;;;;;;28.15;20.10;;;;;;;8.02;70.76;99717.48;1705448;82;21049;-62
2022/11/16 05:30:25;;;;;;;24.00;18.45;;;;;;;8.03;70.95;99716.54;1710590;82;21084;-62
2022/11/16 05:32:52;;;;;;;28.45;20.30;;;;;;;8.00;71.02;99718.46;1718291;82;21033;-62
2022/11/16 05:35:19;;;;;;;30.32;20.20;;;;;;;7.97;71.07;99719.19;1703914;83;21250;-62
2022/11/16 05:37:46;;;;;;;28.60;19.35;;;;;;;7.92;71.17;99719.55;1705372;83;21050;-62
2022/11/16 05:40:14;;;;;;;30.88;19.30;;;;;;;7.91;71.18;99717.87;1709106;81;21645;-62
2022/11/16 05:42:43;;;;;;;29.57;18.90;;;;;;;7.94;71.09;99716.32;1728299;81;21570;-62
2022/11/16 05:45:10;;;;;;;28.55;19.67;;;;;;;7.98;71.09;99717.76;1702465;83;21532;-62
2022/11/16 05:47:37;;;;;;;29.67;20.55;;;;;;;8.02;71.18;99713.55;1687977;83;21142;-63
2022/11/16 05:50:06;;;;;;;29.65;20.72;;;;;;;8.01;71.23;99712.73;1702134;83;21098;-62
2022/11/16 05:52:35;;;;;;;29.57;20.32;;;;;;;7.98;71.28;99709.89;1701311;82;21098;-63
2022/11/16 05:55:05;;;;;;;30.23;21.12;;;;;;;7.96;71.34;99698.69;1687838;82;21093;-62
2022/11/16 05:59:28;;;;;;;25.45;18.75;;;;;;;7.80;71.99;99701.70;1793940;78;22326;-67
2022/11/16 06:01:57;;;;;;;43.20;20.77;;;;;;;7.98;71.31;99698.11;1783956;80;20954;-67
2022/11/16 06:04:24;;;;;;;39.10;20.70;;;;;;;8.06;71.14;99701.89;1779363;78;21306;-68
2022/11/16 06:06:51;;;;;;;24.92;18.57;;;;;;;8.10;71.10;99691.50;1787455;80;20996;-68
2022/11/16 06:09:19;;;;;;;31.40;19.87;;;;;;;8.18;71.16;99696.96;1787446;80;20939;-67
2022/11/16 06:11:48;;;;;;;31.62;21.20;;;;;;;8.17;71.02;99695.31;1787096;80;21056;-67
2022/11/16 06:14:15;;;;;;;31.52;21.73;;;;;;;8.14;70.84;99696.87;1776783;78;21022;-67
2022/11/16 06:16:43;;;;;;;28.92;20.95;;;;;;;8.12;70.96;99702.69;1766376;78;21497;-67
2022/11/16 06:19:11;;;;;;;32.28;22.13;;;;;;;8.10;71.08;99701.98;1769404;78;20971;-67
2022/11/16 06:21:39;;;;;;;31.93;19.20;;;;;;;8.12;71.04;99701.38;1767978;80;21078;-67
2022/11/16 06:24:08;;;;;;;25.02;17.67;;;;;;;8.19;70.89;99706.50;1762092;80;21557;-67
2022/11/16 06:26:36;;;;;;;30.75;20.80;;;;;;;8.28;70.87;99702.30;1784331;80;21063;-67
2022/11/16 06:29:03;;;;;;;27.07;19.55;;;;;;;8.33;70.68;99704.88;1770830;80;21248;-67
2022/11/16 06:31:30;;;;;;;31.68;19.57;;;;;;;8.34;70.60;99700.00;1766163;80;21026;-67
2022/11/16 06:33:59;;;;;;;27.70;20.52;;;;;;;8.32;70.64;99704.55;1766128;80;21047;-67
2022/11/16 06:36:26;;;;;;;29.27;20.00;;;;;;;8.35;70.74;99700.38;1763813;80;21105;-67
2022/11/16 06:38:52;;;;;;;28.50;21.60;;;;;;;8.31;70.70;99696.31;1768992;78;21044;-67
2022/11/16 06:41:19;;;;;;;29.37;21.17;;;;;;;8.33;70.31;99697.02;1767771;80;21319;-67
2022/11/16 06:43:48;;;;;;;26.95;18.92;;;;;;;8.33;70.19;99700.95;1768102;80;21097;-67
2022/11/16 06:46:16;;;;;;;30.17;20.82;;;;;;;8.36;69.94;99689.39;1767809;80;20976;-67
2022/11/16 06:48:42;;;;;;;28.60;20.90;;;;;;;8.41;70.06;99688.54;1770269;80;21067;-67
2022/11/16 06:51:11;;;;;;;28.25;20.88;;;;;;;8.48;70.17;99687.59;1772397;78;21555;-67
2022/11/16 06:53:39;;;;;;;26.23;19.25;;;;;;;8.50;70.23;99689.11;1767506;78;21015;-67
2022/11/16 06:56:06;;;;;;;28.95;20.27;;;;;;;8.54;70.25;99685.78;1762508;80;21536;-67
2022/11/16 06:58:35;;;;;;;30.75;19.60;;;;;;;8.56;70.16;99685.17;1760327;80;21090;-67
2022/11/16 07:01:07;;;;;;;24.23;18.07;;;;;;;8.54;70.02;99685.30;1767236;80;21599;-67
2022/11/16 07:03:34;;;;;;;26.07;17.37;;;;;;;8.53;69.91;99682.30;1763146;80;21086;-67
2022/11/16 07:06:07;;;;;;;22.60;15.58;;;;;;;8.53;69.57;99678.86;1760804;80;21624;-66
2022/11/16 07:08:34;;;;;;;22.52;16.70;;;;;;;8.54;69.22;99673.49;1705856;83;21102;-66
2022/11/16 07:11:05;;;;;;;25.37;17.85;;;;;;;8.56;69.17;99672.05;1764138;79;20996;-67
2022/11/16 07:13:35;;;;;;;25.60;18.70;;;;;;;8.58;69.36;99670.13;1759615;80;21510;-67
2022/11/16 07:16:06;;;;;;;26.55;18.70;;;;;;;8.62;69.54;99669.39;1748549;80;21019;-67
2022/11/16 07:18:36;;;;;;;28.02;18.67;;;;;;;8.63;69.39;99669.76;1747202;79;21137;-66
2022/11/16 07:21:08;;;;;;;26.45;19.52;;;;;;;8.63;69.31;99665.83;1753249;79;21121;-67
2022/11/16 07:23:35;;;;;;;25.43;19.05;;;;;;;8.60;69.30;99669.52;1754017;79;21086;-67
2022/11/16 07:26:04;;;;;;;22.73;16.27;;;;;;;8.59;69.54;99674.43;1747702;80;21137;-67
2022/11/16 07:28:35;;;;;;;24.10;16.80;;;;;;;8.62;69.46;99666.77;1757074;80;21381;-67
2022/11/16 07:31:06;;;;;;;26.42;17.92;;;;;;;8.67;69.26;99669.84;1755763;80;21599;-68
2022/11/16 07:33:34;;;;;;;25.60;18.30;;;;;;;8.72;69.15;99672.91;1750954;80;21047;-69
2022/11/16 07:36:19;;;;;;;25.50;17.50;;;;;;;8.73;68.83;99663.60;1746236;80;20984;-69
2022/11/16 07:38:46;;;;;;;24.45;17.52;;;;;;;8.66;68.83;99666.88;1754361;80;21075;-69
2022/11/16 07:41:15;;;;;;;22.00;17.87;;;;;;;8.62;69.14;99666.28;1753945;80;21048;-69
2022/11/16 07:43:44;;;;;;;23.73;17.82;;;;;;;8.62;69.19;99664.14;1747342;80;21177;-68
2022/11/16 07:46:15;;;;;;;23.10;18.23;;;;;;;8.62;69.13;99663.66;1746415;80;21063;-69
2022/11/16 07:48:43;;;;;;;25.77;17.40;;;;;;;8.59;69.16;99659.16;1751003;79;21044;-68
2022/11/16 07:51:15;;;;;;;22.50;16.80;;;;;;;8.60;69.02;99660.34;1748445;80;21047;-68
2022/11/16 07:53:43;;;;;;;27.00;17.42;;;;;;;8.66;69.14;99655.91;1750892;80;21056;-69
2022/11/16 07:56:10;;;;;;;24.10;17.85;;;;;;;8.72;68.88;99656.71;1752236;80;21166;-67
2022/11/16 07:58:39;;;;;;;24.52;16.97;;;;;;;8.72;68.75;99646.67;1752651;80;21019;-68
2022/11/16 08:01:13;;;;;;;24.43;18.00;;;;;;;8.76;68.97;99651.18;1745662;80;21060;-68
2022/11/16 08:03:41;;;;;;;26.37;18.32;;;;;;;8.80;69.08;99647.36;1753461;79;21823;-67
2022/11/16 08:06:18;;;;;;;25.68;18.20;;;;;;;8.83;68.97;99648.41;1715657;82;21052;-68
2022/11/16 08:08:45;;;;;;;25.37;17.00;;;;;;;8.85;68.79;99653.87;1745752;80;21990;-69
2022/11/16 08:11:12;;;;;;;25.62;17.75;;;;;;;8.80;68.70;99653.42;1750106;80;21023;-69
2022/11/16 08:13:41;;;;;;;23.38;16.82;;;;;;;8.78;68.57;99651.42;1746350;80;21505;-68
2022/11/16 08:16:14;;;;;;;22.62;15.83;;;;;;;8.86;68.46;99650.30;1749936;80;21067;-69
2022/11/16 08:18:41;;;;;;;21.97;16.30;;;;;;;8.92;68.37;99649.75;1760099;80;21134;-69
2022/11/16 08:21:11;;;;;;;21.05;16.15;;;;;;;9.00;68.62;99652.23;1751869;80;22158;-69
2022/11/16 08:23:41;;;;;;;19.42;15.28;;;;;;;9.07;68.67;99654.18;1748153;80;21015;-68
2022/11/16 08:26:17;;;;;;;20.70;14.47;;;;;;;9.13;68.34;99654.16;1746245;80;21015;-68
2022/11/16 08:28:46;;;;;;;22.50;16.05;;;;;;;9.12;67.90;99651.17;1695754;83;21027;-69
2022/11/16 08:31:19;;;;;;;22.20;17.25;;;;;;;9.06;67.65;99653.84;1707731;83;21044;-69
2022/11/16 08:33:47;;;;;;;20.92;15.68;;;;;;;9.03;67.67;99654.11;1686443;83;21242;-68
2022/11/16 08:36:17;;;;;;;19.70;14.35;;;;;;;8.98;67.71;99654.12;1704056;83;21261;-69
2022/11/16 08:38:45;;;;;;;19.20;14.05;;;;;;;8.95;67.67;99653.92;1689626;83;21710;-69
2022/11/16 08:41:12;;;;;;;23.20;13.80;;;;;;;9.03;67.80;99654.59;1748545;80;21082;-69
2022/11/16 08:43:40;;;;;;;21.93;14.87;;;;;;;9.16;67.54;99654.36;1754001;80;21070;-68
2022/11/16 08:46:08;;;;;;;21.23;15.32;;;;;;;9.14;67.66;99653.17;1750315;80;21292;-68
2022/11/16 08:48:35;;;;;;;20.48;14.83;;;;;;;9.17;67.87;99659.97;1752157;80;21564;-68
2022/11/16 08:51:09;;;;;;;18.98;14.75;;;;;;;9.23;67.99;99656.80;1717730;82;21020;-68
2022/11/16 08:53:36;;;;;;;17.55;13.78;;;;;;;9.27;67.69;99650.34;1752667;79;21050;-68
2022/11/16 08:56:12;;;;;;;20.35;15.03;;;;;;;9.26;67.56;99652.61;1752591;80;21094;-68
2022/11/16 08:58:45;;;;;;;19.42;14.85;;;;;;;9.26;67.42;99660.48;1717964;82;21196;-67
2022/11/16 09:01:14;;;;;;;18.32;14.28;;;;;;;9.25;67.33;99660.15;1746200;80;21048;-72
2022/11/16 09:03:41;;;;;;;19.27;13.90;;;;;;;9.26;67.38;99657.85;1757031;80;21011;-67
2022/11/16 09:06:08;;;;;;;19.90;14.00;;;;;;;9.33;67.17;99651.13;1746333;79;22321;-69
2022/11/16 09:08:37;;;;;;;20.90;13.62;;;;;;;9.39;67.12;99645.33;1752541;79;21058;-69
2022/11/16 09:11:06;;;;;;;19.30;14.00;;;;;;;9.46;67.08;99644.31;1700839;82;21285;-69
2022/11/16 09:13:34;;;;;;;18.10;13.18;;;;;;;9.48;66.88;99636.66;1750090;80;21729;-69
2022/11/16 09:16:00;;;;;;;16.70;12.93;;;;;;;9.48;66.49;99640.60;1750564;80;21035;-70
2022/11/16 09:18:27;;;;;;;17.07;12.80;;;;;;;9.41;66.36;99639.45;1758138;80;21036;-69
2022/11/16 09:20:54;;;;;;;17.90;13.62;;;;;;;9.40;66.43;99643.06;1762045;80;21010;-70
2022/11/16 09:23:21;;;;;;;16.50;12.95;;;;;;;9.38;66.29;99639.75;1770113;80;21451;-72
2022/11/16 09:25:48;;;;;;;17.20;11.22;;;;;;;9.35;66.24;99637.88;1764105;79;21036;-70
2022/11/16 09:28:16;;;;;;;15.93;11.55;;;;;;;9.33;66.13;99635.37;1771189;79;21040;-70
2022/11/16 09:30:43;;;;;;;15.83;11.45;;;;;;;9.37;65.94;99628.06;1760892;80;21071;-71
2022/11/16 09:33:11;;;;;;;18.65;11.97;;;;;;;9.42;65.90;99626.69;1757109;80;21019;-70
2022/11/16 09:35:37;;;;;;;17.42;12.23;;;;;;;9.50;65.92;99637.84;1765866;80;21255;-70
2022/11/16 09:38:04;;;;;;;17.17;11.78;;;;;;;9.52;65.98;99629.34;1707031;82;21083;-70
2022/11/16 09:40:39;;;;;;;18.17;13.48;;;;;;;9.51;65.80;99627.67;1767112;80;21042;-70
2022/11/16 09:43:30;;;;;;;19.20;13.22;;;;;;;9.49;65.73;99627.80;1736001;80;21011;-71
2022/11/16 09:46:12;;;;;;;13.72;9.50;;;;;;;9.45;65.49;99632.17;1745224;79;22212;-70
2022/11/16 09:48:40;;;;;;;12.47;9.03;;;;;;;9.28;65.72;99627.07;1765000;79;21165;-70
2022/11/16 09:51:09;;;;;;;12.00;8.90;;;;;;;9.09;66.30;99622.10;1758230;80;21504;-70
2022/11/16 09:53:57;;;;;;;11.05;8.13;;;;;;;9.00;66.74;99630.75;1755009;80;21051;-69
2022/11/16 09:56:25;;;;;;;12.47;8.53;;;;;;;8.99;67.22;99629.56;1759908;80;21051;-74
2022/11/16 09:59:11;;;;;;;12.05;8.33;;;;;;;8.97;67.67;99621.82;1766703;80;21524;-70
2022/11/16 10:01:55;;;;;;;11.93;8.43;;;;;;;8.89;67.68;99617.70;1750432;80;21200;-71
2022/11/16 10:04:37;;;;;;;12.75;8.93;;;;;;;8.77;67.96;99610.40;1763766;80;21096;-70
2022/11/16 10:09:16;;;;;;;12.75;8.48;;;;;;;8.47;68.85;99603.32;1796645;78;22726;-62
2022/11/16 10:12:09;;;;;;;13.20;8.15;;;;;;;8.37;69.04;99607.16;1771049;80;21125;-63
2022/11/16 10:14:51;;;;;;;11.10;7.37;;;;;;;8.33;69.35;99603.14;1763748;80;21158;-62
2022/11/16 10:18:03;;;;;;;12.75;8.15;;;;;;;8.32;69.48;99607.56;1771555;80;20975;-63
2022/11/16 10:21:00;;;;;;;13.15;8.80;;;;;;;8.27;69.80;99603.64;1755382;80;21030;-64
2022/11/16 10:23:57;;;;;;;10.13;7.17;;;;;;;8.24;70.09;99606.51;1773304;80;20967;-64
2022/11/16 10:26:52;;;;;;;11.75;7.17;;;;;;;8.19;70.12;99608.22;1776690;80;21402;-63
2022/11/16 10:29:54;;;;;;;11.78;7.05;;;;;;;8.06;70.50;99607.08;1720412;81;21156;-63
2022/11/16 10:32:30;;;;;;;11.40;7.28;;;;;;;8.13;70.62;99602.98;1709382;82;20943;-64
2022/11/16 10:35:18;;;;;;;10.55;6.85;;;;;;;8.16;70.44;99600.13;1714952;82;21058;-63
2022/11/16 10:37:48;;;;;;;9.65;6.47;;;;;;;8.16;70.65;99591.44;1720959;82;21500;-63
2022/11/16 10:40:37;;;;;;;12.65;7.67;;;;;;;8.21;70.74;99595.81;1718567;82;21575;-64
2022/11/16 10:43:13;;;;;;;10.28;6.80;;;;;;;8.29;70.74;99596.02;1718837;82;21159;-62
2022/11/16 10:45:58;;;;;;;10.65;7.03;;;;;;;8.29;70.65;99580.78;1717848;82;21028;-64
2022/11/16 10:49:06;;;;;;;9.75;6.35;;;;;;;8.26;70.53;99584.47;1722674;82;21038;-63
2022/11/16 10:51:33;;;;;;;11.97;7.05;;;;;;;8.21;70.63;99583.20;1716561;82;21098;-63
2022/11/16 10:54:00;;;;;;;10.78;6.10;;;;;;;8.28;70.46;99572.06;1709459;83;21090;-64
2022/11/16 10:56:36;;;;;;;11.48;5.80;;;;;;;8.25;70.48;99570.18;1744693;81;22230;-64
2022/11/16 10:59:07;;;;;;;10.48;5.90;;;;;;;8.20;70.68;99571.86;1748389;81;21042;-60
2022/11/16 11:01:57;;;;;;;8.93;5.97;;;;;;;8.22;70.80;99578.30;1742874;81;21052;-62
2022/11/16 11:04:28;;;;;;;9.50;6.25;;;;;;;8.22;70.87;99573.05;1702097;83;21046;-63
2022/11/16 11:07:01;;;;;;;10.05;5.72;;;;;;;8.25;70.79;99570.18;1742582;80;21130;-62
2022/11/16 11:09:34;;;;;;;8.25;5.50;;;;;;;8.32;70.54;99573.95;1728317;81;21119;-62
2022/11/16 11:12:42;;;;;;;10.20;6.00;;;;;;;8.35;70.51;99575.86;1726705;81;21140;-62
2022/11/16 11:15:13;;;;;;;9.68;6.15;;;;;;;8.40;70.28;99568.07;1750429;80;21043;-62
2022/11/16 11:17:43;;;;;;;11.10;5.83;;;;;;;8.35;70.16;99566.68;1760528;80;21097;-62
2022/11/16 11:20:18;;;;;;;10.28;5.90;;;;;;;8.32;70.26;99563.45;1701326;83;22358;-63
2022/11/16 11:22:55;;;;;;;8.98;5.30;;;;;;;8.33;70.27;99564.64;1716493;83;21496;-62
2022/11/16 11:25:27;;;;;;;8.90;5.62;;;;;;;8.32;70.22;99568.24;1704581;83;21552;-62
2022/11/16 11:28:30;;;;;;;9.58;5.62;;;;;;;8.38;70.00;99562.47;1708533;83;21102;-61
2022/11/16 11:31:03;;;;;;;9.23;5.87;;;;;;;8.40;70.00;99564.14;1706155;82;21079;-63
2022/11/16 11:33:40;;;;;;;10.68;6.47;;;;;;;8.32;70.00;99566.94;1711201;83;21117;-62
2022/11/16 11:36:17;;;;;;;9.55;5.25;;;;;;;8.20;70.09;99574.48;1712051;83;21496;-63
2022/11/16 11:39:02;;;;;;;9.23;5.47;;;;;;;8.18;70.25;99565.93;1711478;82;22299;-62
2022/11/16 11:41:35;;;;;;;9.65;6.12;;;;;;;8.24;70.23;99564.58;1712938;83;22150;-63
2022/11/16 11:44:10;;;;;;;8.30;5.62;;;;;;;8.24;70.18;99558.87;1707896;83;21066;-63
2022/11/16 11:46:37;;;;;;;11.57;6.83;;;;;;;8.23;70.12;99559.00;1708000;83;21051;-63
2022/11/16 11:49:22;;;;;;;9.10;6.35;;;;;;;8.18;70.02;99565.93;1758543;79;21240;-63
2022/11/16 11:51:49;;;;;;;5.85;2.37;;;;;;;8.14;70.06;99569.77;1761737;80;21043;-63
2022/11/16 11:54:23;;;;;;;9.50;5.83;;;;;;;8.09;70.02;99565.40;1767275;80;21552;-63
2022/11/16 11:56:49;;;;;;;8.85;5.30;;;;;;;8.09;69.94;99563.59;1684409;84;21066;-63
2022/11/16 11:59:20;;;;;;;10.40;6.05;;;;;;;8.10;70.10;99559.17;1743648;80;21034;-63
2022/11/16 12:02:02;;;;;;;10.93;6.92;;;;;;;8.10;70.22;99566.58;1759981;80;22177;-62
2022/11/16 12:04:56;;;;;;;12.05;6.97;;;;;;;8.06;70.44;99565.64;1758542;80;21086;-63
2022/11/16 12:07:34;;;;;;;8.88;5.67;;;;;;;8.07;70.33;99568.59;1754782;80;21163;-62
2022/11/16 12:10:22;;;;;;;9.55;5.53;;;;;;;8.04;70.39;99563.64;1718404;80;21555;-63
2022/11/16 12:14:48;;;;;;;8.50;6.12;;;;;;;8.02;71.00;99562.45;1791685;78;22631;-62
2022/11/16 12:17:41;;;;;;;9.63;6.12;;;;;;;8.15;70.45;99568.34;1757384;80;22165;-63
2022/11/16 12:20:22;;;;;;;9.08;5.92;;;;;;;8.14;70.36;99562.73;1763942;80;21130;-63
2022/11/16 12:23:28;;;;;;;9.73;6.35;;;;;;;8.09;70.25;99566.70;1756337;80;21102;-63
2022/11/16 12:26:36;;;;;;;9.40;5.58;;;;;;;8.00;70.23;99558.64;1766261;80;21595;-63
2022/11/16 12:29:25;;;;;;;9.68;5.97;;;;;;;8.00;70.27;99562.58;1731597;81;21118;-63
2022/11/16 12:32:12;;;;;;;8.08;5.55;;;;;;;8.03;70.31;99560.16;1715788;81;22047;-63
2022/11/16 12:34:58;;;;;;;10.58;6.58;;;;;;;8.06;70.33;99560.41;1737349;80;20881;-63
2022/11/16 12:38:05;;;;;;;10.35;7.20;;;;;;;7.98;70.55;99563.19;1770422;79;20999;-63